Adjuntas, Puerto Rico
Current Conditions -  °F | °C
As of 9:50 AM on Tuesday 21 Oct 2014 (Local Time) from TJBQ Reporting Station
Scattered Clouds Scattered Clouds  
Wind Chill: 30°   Ceiling: Unl
Heat Index: 34°   Visibility: 10mi
Dew Point: 23°   Wind: 9mph
Humidity: 66%   Direction: 80°E
Pressure: 30"   Gusts: NA
Location:  18.16°N, 66.72°W
Report Text: TJBQ 211350Z 08008KT 10SM SCT050 30/23 A3000 RMK RWY08- ATIS U
Loading
Personal Weather Stations






























Interactive Weather Map
Tropical Storm Tracking
New forecast layout! Learn more

10-Day Weather Forecast

Advertisements
Track Severe Weather on mobile